createdAt,value
2019-05-15T00:00:38.655Z,69.73
2019-05-15T00:01:41.086Z,69.63
2019-05-15T00:02:38.843Z,69.44
2019-05-15T00:03:39.159Z,69.82
2019-05-15T00:04:38.369Z,70.10
2019-05-15T00:05:39.036Z,70.10
2019-05-15T00:06:38.959Z,69.92
2019-05-15T00:07:38.814Z,70.77
2019-05-15T00:08:38.612Z,71.15
2019-05-15T00:09:39.259Z,71.06
2019-05-15T00:10:38.893Z,70.39
2019-05-15T00:11:38.782Z,70.68
2019-05-15T00:12:39.205Z,70.68
2019-05-15T00:13:38.651Z,70.77
2019-05-15T00:14:38.730Z,71.02
2019-05-15T00:15:36.530Z,72.16
2019-05-15T00:16:38.657Z,71.69
2019-05-15T00:17:39.061Z,71.59
2019-05-15T00:18:38.788Z,71.59
2019-05-15T00:19:38.844Z,72.07
2019-05-15T00:20:39.114Z,71.97
2019-05-15T00:21:38.306Z,72.35
2019-05-15T00:22:38.723Z,72.45
2019-05-15T00:23:38.671Z,72.26
2019-05-15T00:24:38.162Z,73.59
2019-05-15T00:25:39.060Z,72.92
2019-05-15T00:26:38.376Z,73.02
2019-05-15T00:27:38.684Z,73.11
2019-05-15T00:28:38.647Z,73.21
2019-05-15T00:29:38.383Z,73.30
2019-05-15T00:30:38.675Z,73.69
2019-05-15T00:31:38.681Z,74.54
2019-05-15T00:32:36.310Z,74.07
2019-05-15T00:33:36.295Z,74.63
2019-05-15T00:34:37.890Z,75.59
2019-05-15T00:35:38.981Z,77.24
2019-05-15T00:36:38.304Z,76.20
2019-05-15T00:37:38.457Z,75.05
2019-05-15T00:38:36.230Z,74.63
2019-05-15T00:39:36.220Z,74.77
2019-05-15T00:40:38.829Z,74.96
2019-05-15T00:41:48.363Z,76.57
2019-05-15T00:42:38.357Z,76.39
2019-05-15T00:43:38.502Z,75.05
2019-05-15T00:44:38.539Z,74.29
2019-05-15T00:45:38.342Z,73.63
2019-05-15T00:46:38.287Z,74.67
2019-05-15T00:47:36.117Z,76.06
2019-05-15T00:48:36.102Z,76.01
2019-05-15T00:49:38.093Z,76.16
2019-05-15T00:50:36.076Z,75.59
2019-05-15T00:51:36.065Z,74.54
2019-05-15T00:52:36.052Z,75.68
2019-05-15T00:53:36.035Z,75.96
2019-05-15T00:54:36.026Z,76.06
2019-05-15T00:55:38.015Z,75.87
2019-05-15T00:56:35.998Z,76.63
2019-05-15T00:57:35.987Z,77.11
2019-05-15T00:58:35.973Z,77.20
2019-05-15T00:59:35.962Z,77.01
2019-05-15T01:00:38.046Z,77.49
2019-05-15T01:01:38.025Z,78.16
2019-05-15T01:02:35.920Z,78.40
2019-05-15T01:03:35.906Z,79.25
2019-05-15T01:04:35.895Z,79.35
2019-05-15T01:05:35.883Z,80.87
2019-05-15T01:06:35.868Z,80.11
2019-05-15T01:07:35.855Z,79.25
2019-05-15T01:08:35.843Z,79.54
2019-05-15T01:09:35.828Z,79.92
2019-05-15T01:10:38.316Z,80.11
2019-05-15T01:11:37.965Z,79.16
2019-05-15T01:12:37.959Z,79.44
2019-05-15T01:13:35.776Z,80.68
2019-05-15T01:14:35.764Z,81.35
2019-05-15T01:15:35.750Z,80.96
2019-05-15T01:16:38.118Z,80.11
2019-05-15T01:17:38.698Z,81.35
2019-05-15T01:18:35.711Z,80.87
2019-05-15T01:19:37.826Z,82.10
2019-05-15T01:20:35.687Z,81.10
2019-05-15T01:21:35.669Z,80.11
2019-05-15T01:22:35.661Z,80.02
2019-05-15T01:23:35.653Z,82.62
2019-05-15T01:24:35.635Z,82.81
2019-05-15T01:25:35.620Z,82.34
2019-05-15T01:26:35.606Z,80.05
2019-05-15T01:27:35.596Z,81.20
2019-05-15T01:28:35.581Z,80.91
2019-05-15T01:29:41.922Z,80.82
2019-05-15T01:30:35.553Z,82.34
2019-05-15T01:31:37.886Z,81.29
2019-05-15T01:32:35.525Z,82.15
2019-05-15T01:33:35.515Z,80.91
2019-05-15T01:34:35.504Z,80.72
2019-05-15T01:35:35.488Z,80.15
2019-05-15T01:36:38.075Z,80.53
2019-05-15T01:37:35.458Z,80.15
2019-05-15T01:38:35.447Z,81.38
2019-05-15T01:39:35.433Z,80.63
2019-05-15T01:40:35.422Z,80.15
2019-05-15T01:41:35.413Z,81.58
2019-05-15T01:42:35.399Z,80.15
2019-05-15T01:43:35.383Z,79.68
2019-05-15T01:44:35.371Z,80.53
2019-05-15T01:45:35.356Z,81.48
2019-05-15T01:46:35.342Z,80.91
2019-05-15T01:47:35.330Z,82.71
2019-05-15T01:48:35.317Z,80.44
2019-05-15T01:49:35.302Z,80.15
2019-05-15T01:50:35.292Z,80.91
2019-05-15T01:51:35.277Z,80.24
2019-05-15T01:52:35.265Z,80.05
2019-05-15T01:53:35.251Z,80.34
2019-05-15T01:54:35.242Z,80.82
2019-05-15T01:55:35.227Z,80.63
2019-05-15T01:56:35.213Z,80.15
2019-05-15T01:57:35.203Z,80.15
2019-05-15T01:58:35.189Z,81.01
2019-05-15T01:59:35.174Z,81.48
2019-05-15T02:00:35.170Z,81.38
2019-05-15T02:01:35.150Z,81.38
2019-05-15T02:02:35.140Z,82.43
2019-05-15T02:03:35.124Z,82.34
2019-05-15T02:04:35.110Z,81.10
2019-05-15T02:05:35.097Z,81.10
2019-05-15T02:06:35.086Z,79.86
2019-05-15T02:07:35.070Z,80.24
2019-05-15T02:08:35.057Z,79.11
2019-05-15T02:09:35.049Z,79.30
2019-05-15T02:10:35.034Z,79.49
2019-05-15T02:11:35.019Z,80.44
2019-05-15T02:12:35.011Z,80.15
2019-05-15T02:13:34.993Z,81.38
2019-05-15T02:14:34.982Z,81.38
2019-05-15T02:15:34.969Z,81.77
2019-05-15T02:16:34.956Z,79.58
2019-05-15T02:17:34.942Z,79.20
2019-05-15T02:18:34.930Z,80.15
2019-05-15T02:19:34.923Z,81.01
2019-05-15T02:20:34.905Z,80.05
2019-05-15T02:21:34.893Z,80.34
2019-05-15T02:22:34.878Z,79.96
2019-05-15T02:23:34.865Z,82.24
2019-05-15T02:24:34.851Z,80.34
2019-05-15T02:25:34.839Z,81.48
2019-05-15T02:26:34.826Z,81.10
2019-05-15T02:27:34.817Z,82.24
2019-05-15T02:28:34.799Z,83.86
2019-05-15T02:29:34.788Z,83.10
2019-05-15T02:30:34.789Z,81.67
2019-05-15T02:31:34.761Z,80.82
2019-05-15T02:32:34.750Z,81.10
2019-05-15T02:33:34.736Z,81.20
2019-05-15T02:34:34.723Z,81.20
2019-05-15T02:35:34.707Z,82.01
2019-05-15T02:36:34.699Z,81.92
2019-05-15T02:37:34.683Z,82.58
2019-05-15T02:38:34.674Z,83.53
2019-05-15T02:39:34.658Z,83.82
2019-05-15T02:40:34.643Z,83.82
2019-05-15T02:41:34.637Z,84.67
2019-05-15T02:42:34.627Z,83.15
2019-05-15T02:43:34.611Z,83.72
2019-05-15T02:44:34.593Z,84.86
2019-05-15T02:45:37.756Z,84.48
2019-05-15T02:46:34.565Z,84.39
2019-05-15T02:47:34.555Z,85.05
2019-05-15T02:48:34.540Z,85.81
2019-05-15T02:49:34.531Z,85.62
2019-05-15T02:50:34.513Z,85.86
2019-05-15T02:51:34.502Z,84.01
2019-05-15T02:52:34.490Z,84.24
2019-05-15T02:53:34.472Z,84.72
2019-05-15T02:54:34.460Z,84.72
2019-05-15T02:55:34.445Z,85.47
2019-05-15T02:56:34.437Z,84.81
2019-05-15T02:57:34.437Z,85.00
2019-05-15T02:58:34.414Z,84.81
2019-05-15T02:59:34.392Z,84.67
2019-05-15T03:00:44.004Z,85.10
2019-05-15T03:01:34.365Z,85.00
2019-05-15T03:02:34.353Z,85.05
2019-05-15T03:03:34.350Z,84.10
2019-05-15T03:04:34.328Z,85.43
2019-05-15T03:05:34.349Z,85.24
2019-05-15T03:06:34.305Z,84.77
2019-05-15T03:07:34.285Z,84.95
2019-05-15T03:08:34.275Z,85.05
2019-05-15T03:09:34.273Z,85.53
2019-05-15T03:10:34.250Z,86.29
2019-05-15T03:11:34.235Z,86.19
2019-05-15T03:12:34.225Z,86.00
2019-05-15T03:13:34.205Z,88.76
2019-05-15T03:14:34.196Z,87.43
2019-05-15T03:15:34.181Z,86.63
2019-05-15T03:16:34.167Z,86.72
2019-05-15T03:17:34.155Z,86.38
2019-05-15T03:18:34.140Z,87.76
2019-05-15T03:19:34.130Z,87.81
2019-05-15T03:20:34.129Z,88.57
2019-05-15T03:21:34.103Z,88.76
2019-05-15T03:22:34.086Z,88.76
2019-05-15T03:23:34.073Z,86.29
2019-05-15T03:24:34.060Z,87.52
2019-05-15T03:25:34.047Z,88.67
2019-05-15T03:26:34.035Z,86.57
2019-05-15T03:27:34.886Z,84.86
2019-05-15T03:28:34.008Z,87.05
2019-05-15T03:29:33.999Z,86.67
2019-05-15T03:31:02.688Z,85.34
2019-05-15T03:31:48.832Z,86.38
2019-05-15T03:32:42.497Z,86.00
2019-05-15T03:33:37.075Z,85.53
2019-05-15T03:34:38.514Z,85.62
2019-05-15T03:35:33.934Z,85.62
2019-05-15T03:36:33.900Z,85.81
2019-05-15T03:37:34.484Z,86.95
2019-05-15T03:38:33.879Z,89.04
2019-05-15T03:39:33.861Z,87.43
2019-05-15T03:40:33.847Z,89.42
2019-05-15T03:41:33.831Z,90.19
2019-05-15T03:42:33.818Z,87.71
2019-05-15T03:43:33.805Z,87.43
2019-05-15T03:44:33.788Z,86.67
2019-05-15T03:45:33.776Z,86.95
2019-05-15T03:46:33.768Z,86.47
2019-05-15T03:47:33.752Z,88.00
2019-05-15T03:48:33.736Z,86.00
2019-05-15T03:49:33.724Z,86.76
2019-05-15T03:50:33.709Z,87.81
2019-05-15T03:51:33.694Z,88.19
2019-05-15T03:52:33.683Z,86.95
2019-05-15T03:53:33.668Z,86.10
2019-05-15T03:54:33.658Z,86.86
2019-05-15T03:55:33.644Z,86.10
2019-05-15T03:56:33.629Z,86.10
2019-05-15T03:57:33.631Z,89.04
2019-05-15T03:58:33.607Z,87.62
2019-05-15T03:59:33.588Z,86.76
2019-05-15T04:00:33.577Z,85.62
2019-05-15T04:01:42.922Z,85.91
2019-05-15T04:02:33.557Z,85.72
2019-05-15T04:03:33.552Z,88.09
2019-05-15T04:04:33.525Z,86.86
2019-05-15T04:05:33.531Z,86.29
2019-05-15T04:06:33.506Z,87.62
2019-05-15T04:07:33.481Z,88.38
2019-05-15T04:08:33.474Z,87.05
2019-05-15T04:09:33.456Z,85.81
2019-05-15T04:10:33.445Z,85.43
2019-05-15T04:11:33.444Z,87.05
2019-05-15T04:12:33.418Z,88.76
2019-05-15T04:13:33.415Z,86.95
2019-05-15T04:14:33.390Z,85.91
2019-05-15T04:15:33.381Z,85.62
2019-05-15T04:16:33.376Z,87.05
2019-05-15T04:17:33.350Z,85.43
2019-05-15T04:18:33.337Z,85.34
2019-05-15T04:19:33.325Z,87.05
2019-05-15T04:20:33.355Z,86.19
2019-05-15T04:21:33.326Z,85.43
2019-05-15T04:22:33.285Z,85.34
2019-05-15T04:23:33.304Z,84.77
2019-05-15T04:24:33.279Z,85.91
2019-05-15T04:25:33.262Z,85.81
2019-05-15T04:26:33.309Z,85.81
2019-05-15T04:27:33.234Z,85.72
2019-05-15T04:28:33.211Z,85.05
2019-05-15T04:29:33.191Z,85.34
2019-05-15T04:30:33.180Z,85.81
2019-05-15T04:31:50.352Z,86.10
2019-05-15T04:32:33.152Z,86.29
2019-05-15T04:33:33.140Z,86.57
2019-05-15T04:34:33.139Z,86.57
2019-05-15T04:35:33.114Z,86.47
2019-05-15T04:36:33.102Z,86.47
2019-05-15T04:37:33.087Z,85.72
2019-05-15T04:38:33.078Z,85.15
2019-05-15T04:39:33.095Z,85.05
2019-05-15T04:40:33.047Z,85.24
2019-05-15T04:41:33.032Z,85.43
2019-05-15T04:42:33.028Z,85.91
2019-05-15T04:43:41.298Z,86.00
2019-05-15T04:44:32.998Z,85.81
2019-05-15T04:45:35.179Z,85.91
2019-05-15T04:46:32.968Z,85.91
2019-05-15T04:47:32.960Z,85.81
2019-05-15T04:48:32.945Z,87.14
2019-05-15T04:49:32.928Z,86.95
2019-05-15T04:50:32.912Z,86.57
2019-05-15T04:51:32.901Z,85.91
2019-05-15T04:52:32.888Z,85.53
2019-05-15T04:53:33.504Z,86.95
2019-05-15T04:54:32.860Z,87.52
2019-05-15T04:55:32.847Z,87.05
2019-05-15T04:56:32.833Z,85.81
2019-05-15T04:57:34.314Z,85.24
2019-05-15T04:58:32.805Z,85.15
2019-05-15T04:59:32.794Z,85.62
2019-05-15T05:00:32.778Z,85.72
2019-05-15T05:01:32.769Z,87.71
2019-05-15T05:02:32.756Z,87.71
2019-05-15T05:03:34.547Z,87.71
2019-05-15T05:04:32.728Z,86.47
2019-05-15T05:05:32.712Z,85.62
2019-05-15T05:06:32.696Z,85.43
2019-05-15T05:07:32.692Z,85.53
2019-05-15T05:08:32.675Z,85.34
2019-05-15T05:09:32.657Z,86.57
2019-05-15T05:10:32.648Z,86.29
2019-05-15T05:11:32.631Z,88.19
2019-05-15T05:12:32.620Z,87.14
2019-05-15T05:13:32.604Z,85.91
2019-05-15T05:14:32.592Z,87.14
2019-05-15T05:15:32.579Z,88.57
2019-05-15T05:16:32.563Z,85.81
2019-05-15T05:17:32.553Z,85.34
2019-05-15T05:18:32.538Z,85.15
2019-05-15T05:19:32.524Z,85.24
2019-05-15T05:20:32.513Z,84.95
2019-05-15T05:21:32.497Z,85.05
2019-05-15T05:22:32.505Z,85.34
2019-05-15T05:23:32.475Z,85.53
2019-05-15T05:24:32.460Z,85.05
2019-05-15T05:25:32.447Z,84.86
2019-05-15T05:26:32.432Z,84.77
2019-05-15T05:27:32.415Z,85.43
2019-05-15T05:28:32.404Z,85.34
2019-05-15T05:29:32.389Z,84.95
2019-05-15T05:30:32.379Z,84.67
2019-05-15T05:31:32.372Z,84.52
2019-05-15T05:32:35.278Z,84.43
2019-05-15T05:33:32.339Z,84.43
2019-05-15T05:34:32.326Z,83.95
2019-05-15T05:35:32.311Z,83.76
2019-05-15T05:36:32.299Z,83.48
2019-05-15T05:37:32.289Z,83.19
2019-05-15T05:38:32.272Z,83.00
2019-05-15T05:39:32.259Z,82.71
2019-05-15T05:40:32.248Z,83.58
2019-05-15T05:41:32.237Z,82.34
2019-05-15T05:42:32.219Z,82.62
2019-05-15T05:43:32.207Z,81.96
2019-05-15T05:44:32.192Z,82.91
2019-05-15T05:45:32.178Z,82.43
2019-05-15T05:46:32.168Z,82.43
2019-05-15T05:47:32.155Z,82.71
2019-05-15T05:48:32.142Z,83.29
2019-05-15T05:49:32.127Z,83.19
2019-05-15T05:50:32.114Z,83.48
2019-05-15T05:51:32.103Z,85.19
2019-05-15T05:52:32.088Z,84.33
2019-05-15T05:53:32.075Z,82.91
2019-05-15T05:54:32.063Z,82.34
2019-05-15T05:55:32.056Z,81.86
2019-05-15T05:56:32.036Z,81.38
2019-05-15T05:57:32.022Z,81.77
2019-05-15T05:58:32.011Z,82.34
2019-05-15T05:59:31.997Z,82.53
2019-05-15T06:00:31.987Z,82.62
2019-05-15T06:01:31.971Z,82.91
2019-05-15T06:02:43.792Z,82.62
2019-05-15T06:03:31.950Z,82.53
2019-05-15T06:04:31.933Z,82.34
2019-05-15T06:05:31.918Z,82.53
2019-05-15T06:06:31.908Z,82.43
2019-05-15T06:07:31.891Z,82.34
2019-05-15T06:08:31.878Z,82.53
2019-05-15T06:09:31.865Z,82.81
2019-05-15T06:10:31.855Z,81.90
2019-05-15T06:11:31.839Z,81.14
2019-05-15T06:12:31.829Z,80.86
2019-05-15T06:13:31.813Z,80.57
2019-05-15T06:14:31.802Z,80.38
2019-05-15T06:15:31.788Z,80.10
2019-05-15T06:16:31.779Z,79.72
2019-05-15T06:17:31.771Z,79.81
2019-05-15T06:18:31.757Z,79.52
2019-05-15T06:19:31.745Z,78.19
2019-05-15T06:20:31.725Z,78.29
2019-05-15T06:21:31.711Z,77.72
2019-05-15T06:22:31.698Z,77.85
2019-05-15T06:23:34.917Z,78.14
2019-05-15T06:24:31.675Z,77.85
2019-05-15T06:25:31.665Z,77.66
2019-05-15T06:26:31.647Z,77.28
2019-05-15T06:27:31.638Z,77.19
2019-05-15T06:28:31.631Z,77.37
2019-05-15T06:29:31.610Z,77.28
2019-05-15T06:30:31.595Z,77.28
2019-05-15T06:31:31.596Z,76.81
2019-05-15T06:32:31.575Z,76.61
2019-05-15T06:33:31.559Z,76.61
2019-05-15T06:34:31.550Z,76.33
2019-05-15T06:35:31.560Z,75.57
2019-05-15T06:36:31.526Z,75.57
2019-05-15T06:37:31.521Z,76.61
2019-05-15T06:38:31.496Z,76.14
2019-05-15T06:39:31.487Z,75.95
2019-05-15T06:40:31.472Z,75.85
2019-05-15T06:41:33.921Z,76.33
2019-05-15T06:42:31.448Z,75.95
2019-05-15T06:43:31.440Z,75.95
2019-05-15T06:44:31.425Z,75.79
2019-05-15T06:45:31.413Z,74.84
2019-05-15T06:46:31.401Z,74.75
2019-05-15T06:47:31.390Z,75.09
2019-05-15T06:48:31.385Z,74.52
2019-05-15T06:49:31.364Z,74.52
2019-05-15T06:50:31.351Z,74.33
2019-05-15T06:51:31.346Z,74.52
2019-05-15T06:52:31.328Z,74.43
2019-05-15T06:53:31.316Z,74.62
2019-05-15T06:54:31.303Z,74.43
2019-05-15T06:55:31.291Z,74.80
2019-05-15T06:56:31.281Z,75.19
2019-05-15T06:57:31.281Z,75.09
2019-05-15T06:58:31.257Z,75.19
2019-05-15T06:59:31.243Z,74.99
2019-05-15T07:00:31.232Z,74.99
2019-05-15T07:01:31.219Z,74.71
2019-05-15T07:02:31.212Z,74.80
2019-05-15T07:03:31.201Z,75.23
2019-05-15T07:04:31.188Z,73.99
2019-05-15T07:05:31.195Z,74.27
2019-05-15T07:06:31.163Z,73.80
2019-05-15T07:07:31.151Z,74.46
2019-05-15T07:08:31.141Z,73.89
2019-05-15T07:09:31.123Z,73.99
2019-05-15T07:10:31.111Z,73.61
2019-05-15T07:11:31.102Z,73.80
2019-05-15T07:12:31.088Z,73.70
2019-05-15T07:13:31.079Z,73.32
2019-05-15T07:14:31.068Z,72.75
2019-05-15T07:15:31.052Z,73.32
2019-05-15T07:16:31.043Z,72.56
2019-05-15T07:17:31.036Z,72.08
2019-05-15T07:18:31.016Z,71.80
2019-05-15T07:19:31.011Z,72.37
2019-05-15T07:20:31.005Z,72.17
2019-05-15T07:21:30.992Z,71.61
2019-05-15T07:22:30.975Z,71.89
2019-05-15T07:23:30.960Z,72.27
2019-05-15T07:24:30.957Z,71.89
2019-05-15T07:25:30.936Z,71.22
2019-05-15T07:26:30.927Z,72.27
2019-05-15T07:27:30.912Z,71.64
2019-05-15T07:28:30.903Z,71.45
2019-05-15T07:29:30.889Z,70.69
2019-05-15T07:30:30.878Z,70.31
2019-05-15T07:31:30.867Z,69.17
2019-05-15T07:32:30.855Z,69.07
2019-05-15T07:33:39.713Z,68.69
2019-05-15T07:34:30.834Z,68.98
2019-05-15T07:35:30.822Z,68.88
2019-05-15T07:36:30.807Z,69.54
2019-05-15T07:37:30.797Z,69.35
2019-05-15T07:38:30.785Z,69.35
2019-05-15T07:39:30.777Z,69.54
2019-05-15T07:40:30.765Z,70.12
2019-05-15T07:41:30.750Z,68.88
2019-05-15T07:42:30.741Z,68.69
2019-05-15T07:43:30.732Z,68.50
2019-05-15T07:44:30.721Z,68.30
2019-05-15T07:45:30.708Z,68.30
2019-05-15T07:46:30.695Z,68.59
2019-05-15T07:47:30.680Z,68.98
2019-05-15T07:48:30.672Z,69.17
2019-05-15T07:49:30.659Z,68.30
2019-05-15T07:50:30.647Z,68.50
2019-05-15T07:51:30.643Z,67.83
2019-05-15T07:52:30.628Z,66.88
2019-05-15T07:53:30.612Z,66.88
2019-05-15T07:54:30.604Z,67.26
2019-05-15T07:55:30.593Z,67.55
2019-05-15T07:56:30.583Z,67.39
2019-05-15T07:57:30.570Z,67.39
2019-05-15T07:58:30.557Z,67.10
2019-05-15T07:59:30.547Z,66.15
2019-05-15T08:00:30.537Z,65.86
2019-05-15T08:01:30.520Z,65.96
2019-05-15T08:02:30.513Z,65.29
2019-05-15T08:03:30.501Z,65.86
2019-05-15T08:04:33.109Z,65.67
2019-05-15T08:05:30.481Z,65.67
2019-05-15T08:06:30.466Z,66.44
2019-05-15T08:07:30.488Z,66.05
2019-05-15T08:08:30.454Z,65.00
2019-05-15T08:09:30.433Z,64.91
2019-05-15T08:10:30.430Z,65.48
2019-05-15T08:11:30.417Z,65.29
2019-05-15T08:12:30.403Z,65.10
2019-05-15T08:13:30.392Z,65.00
2019-05-15T08:14:30.401Z,63.76
2019-05-15T08:15:30.368Z,63.80
2019-05-15T08:16:30.357Z,64.09
2019-05-15T08:17:30.346Z,62.91
2019-05-15T08:18:30.338Z,63.86
2019-05-15T08:19:30.352Z,64.18
2019-05-15T08:20:30.316Z,62.75
2019-05-15T08:21:30.304Z,62.46
2019-05-15T08:22:30.291Z,62.37
2019-05-15T08:23:30.286Z,62.37
2019-05-15T08:24:30.280Z,63.13
2019-05-15T08:25:35.159Z,62.65
2019-05-15T08:26:30.248Z,62.49
2019-05-15T08:27:30.247Z,61.54
2019-05-15T08:28:30.230Z,61.54
2019-05-15T08:29:30.222Z,60.87
2019-05-15T08:30:30.207Z,61.35
2019-05-15T08:31:30.205Z,60.58
2019-05-15T08:32:30.187Z,60.68
2019-05-15T08:33:30.178Z,60.97
2019-05-15T08:34:30.166Z,61.25
2019-05-15T08:35:30.158Z,62.40
2019-05-15T08:36:31.386Z,61.57
2019-05-15T08:37:30.135Z,61.10
2019-05-15T08:38:30.125Z,59.38
2019-05-15T08:39:30.115Z,59.16
2019-05-15T08:40:30.105Z,59.09
2019-05-15T08:41:30.096Z,59.16
2019-05-15T08:42:32.145Z,58.68
2019-05-15T08:43:31.422Z,58.39
2019-05-15T08:44:30.061Z,59.63
2019-05-15T08:45:30.055Z,59.73
2019-05-15T08:46:30.050Z,59.44
2019-05-15T08:47:30.053Z,59.92
2019-05-15T08:48:32.613Z,59.92
2019-05-15T08:49:30.014Z,59.53
2019-05-15T08:50:30.002Z,59.73
2019-05-15T08:51:29.992Z,59.92
2019-05-15T08:52:29.981Z,59.92
2019-05-15T08:53:29.973Z,59.82
2019-05-15T08:54:29.962Z,59.53
2019-05-15T08:55:29.953Z,58.87
2019-05-15T08:56:29.945Z,59.25
2019-05-15T08:57:29.935Z,59.60
2019-05-15T08:58:29.923Z,59.25
2019-05-15T08:59:29.914Z,59.92
2019-05-15T09:00:29.902Z,59.92
2019-05-15T09:01:29.891Z,59.44
2019-05-15T09:02:29.881Z,58.48
2019-05-15T09:03:29.870Z,58.20
2019-05-15T09:04:34.504Z,57.53
2019-05-15T09:05:29.856Z,56.48
2019-05-15T09:06:29.842Z,57.09
2019-05-15T09:07:29.829Z,56.32
2019-05-15T09:08:29.819Z,56.70
2019-05-15T09:09:29.807Z,56.01
2019-05-15T09:10:29.800Z,56.38
2019-05-15T09:11:29.789Z,56.48
2019-05-15T09:12:29.777Z,56.58
2019-05-15T09:13:29.769Z,56.77
2019-05-15T09:14:29.758Z,57.53
2019-05-15T09:15:29.748Z,56.67
2019-05-15T09:16:29.739Z,57.43
2019-05-15T09:17:29.729Z,57.34
2019-05-15T09:18:29.724Z,57.24
2019-05-15T09:19:29.706Z,56.67
2019-05-15T09:20:29.701Z,56.87
2019-05-15T09:21:29.687Z,55.53
2019-05-15T09:22:29.688Z,54.60
2019-05-15T09:23:29.671Z,54.89
2019-05-15T09:24:29.658Z,55.36
2019-05-15T09:25:29.646Z,54.79
2019-05-15T09:26:29.640Z,54.79
2019-05-15T09:27:29.629Z,55.46
2019-05-15T09:28:29.872Z,55.46
2019-05-15T09:29:29.611Z,54.89
2019-05-15T09:30:29.597Z,55.72
2019-05-15T09:31:29.587Z,56.41
2019-05-15T09:32:29.576Z,56.96
2019-05-15T09:33:29.589Z,56.77
2019-05-15T09:34:46.398Z,56.32
2019-05-15T09:35:29.548Z,55.46
2019-05-15T09:36:29.539Z,55.46
2019-05-15T09:37:29.525Z,55.96
2019-05-15T09:38:29.531Z,55.65
2019-05-15T09:39:29.507Z,54.99
2019-05-15T09:40:42.541Z,55.08
2019-05-15T09:41:29.486Z,55.08
2019-05-15T09:42:29.477Z,55.18
2019-05-15T09:43:29.467Z,55.82
2019-05-15T09:44:29.459Z,55.43
2019-05-15T09:45:29.444Z,55.46
2019-05-15T09:46:29.441Z,54.99
2019-05-15T09:47:29.802Z,55.43
2019-05-15T09:48:29.419Z,55.72
2019-05-15T09:49:29.417Z,56.20
2019-05-15T09:50:29.399Z,56.10
2019-05-15T09:51:29.389Z,56.20
2019-05-15T09:52:30.186Z,56.48
2019-05-15T09:53:29.368Z,56.67
2019-05-15T09:54:29.481Z,56.77
2019-05-15T09:55:29.350Z,56.38
2019-05-15T09:56:29.336Z,56.67
2019-05-15T09:57:30.197Z,57.06
2019-05-15T09:58:30.219Z,57.43
2019-05-15T09:59:29.307Z,57.72
2019-05-15T10:00:29.453Z,57.34
2019-05-15T10:01:29.286Z,57.43
2019-05-15T10:02:29.276Z,57.53
2019-05-15T10:03:29.273Z,57.15
2019-05-15T10:04:29.258Z,57.72
2019-05-15T10:05:29.246Z,57.43
2019-05-15T10:06:29.240Z,57.72
2019-05-15T10:07:29.227Z,57.82
2019-05-15T10:08:29.475Z,57.43
2019-05-15T10:09:29.211Z,57.34
2019-05-15T10:10:29.200Z,57.72
2019-05-15T10:11:29.183Z,57.63
2019-05-15T10:12:34.497Z,57.22
2019-05-15T10:13:29.161Z,57.82
2019-05-15T10:14:29.739Z,58.11
2019-05-15T10:15:29.143Z,57.98
2019-05-15T10:16:29.130Z,58.07
2019-05-15T10:17:29.236Z,57.98
2019-05-15T10:18:29.114Z,58.55
2019-05-15T10:19:29.234Z,58.29
2019-05-15T10:20:29.283Z,57.72
2019-05-15T10:21:32.417Z,58.11
2019-05-15T10:22:29.069Z,57.92
2019-05-15T10:23:29.433Z,57.82
2019-05-15T10:24:29.053Z,57.53
2019-05-15T10:25:29.037Z,57.72
2019-05-15T10:26:29.031Z,57.43
2019-05-15T10:27:29.019Z,57.53
2019-05-15T10:28:29.503Z,58.11
2019-05-15T10:29:28.996Z,57.72
2019-05-15T10:30:29.004Z,57.92
2019-05-15T10:31:28.982Z,57.63
2019-05-15T10:32:29.245Z,58.11
2019-05-15T10:33:29.562Z,57.85
2019-05-15T10:34:29.006Z,57.28
2019-05-15T10:35:31.681Z,56.32
2019-05-15T10:36:28.930Z,56.89
2019-05-15T10:37:28.914Z,56.70
2019-05-15T10:38:28.910Z,57.18
2019-05-15T10:39:28.993Z,55.65
2019-05-15T10:40:29.758Z,55.08
2019-05-15T10:41:28.878Z,55.75
2019-05-15T10:42:29.130Z,55.27
2019-05-15T10:43:28.944Z,55.18
2019-05-15T10:44:28.844Z,54.79
2019-05-15T10:45:29.616Z,54.89
2019-05-15T10:46:28.824Z,55.36
2019-05-15T10:47:29.412Z,56.13
2019-05-15T10:48:29.466Z,55.36
2019-05-15T10:49:28.794Z,55.49
2019-05-15T10:50:28.784Z,54.91
2019-05-15T10:51:28.841Z,55.20
2019-05-15T10:52:28.800Z,54.34
2019-05-15T10:53:29.665Z,54.44
2019-05-15T10:54:29.377Z,54.25
2019-05-15T10:55:28.944Z,54.06
2019-05-15T10:56:29.275Z,54.72
2019-05-15T10:57:28.717Z,55.08
2019-05-15T10:58:28.794Z,55.36
2019-05-15T10:59:28.699Z,55.65
2019-05-15T11:00:28.773Z,55.94
2019-05-15T11:01:28.679Z,55.36
2019-05-15T11:02:29.094Z,55.36
2019-05-15T11:03:29.770Z,55.08
2019-05-15T11:04:28.940Z,54.99
2019-05-15T11:05:40.706Z,55.01
2019-05-15T11:06:28.904Z,54.34
2019-05-15T11:07:28.623Z,53.51
2019-05-15T11:08:29.135Z,52.55
2019-05-15T11:09:28.797Z,52.46
2019-05-15T11:10:29.063Z,52.08
2019-05-15T11:11:28.583Z,52.84
2019-05-15T11:12:29.246Z,53.41
2019-05-15T11:13:28.959Z,53.61
2019-05-15T11:14:28.799Z,53.29
2019-05-15T11:15:29.117Z,53.58
2019-05-15T11:16:28.536Z,54.25
2019-05-15T11:17:28.677Z,54.53
2019-05-15T11:18:30.846Z,54.53
2019-05-15T11:19:35.684Z,55.01
2019-05-15T11:20:28.497Z,55.01
2019-05-15T11:21:28.490Z,54.25
2019-05-15T11:22:29.899Z,54.34
2019-05-15T11:23:29.266Z,53.67
2019-05-15T11:24:32.271Z,54.06
2019-05-15T11:25:30.139Z,54.25
2019-05-15T11:26:33.090Z,53.96
2019-05-15T11:27:31.365Z,53.86
2019-05-15T11:28:31.522Z,54.25
2019-05-15T11:29:28.413Z,54.15
2019-05-15T11:30:28.404Z,54.25
2019-05-15T11:31:28.791Z,54.25
2019-05-15T11:32:29.394Z,53.49
2019-05-15T11:33:29.202Z,52.15
2019-05-15T11:34:29.037Z,52.15
2019-05-15T11:35:28.589Z,52.62
2019-05-15T11:36:28.939Z,53.39
2019-05-15T11:37:28.454Z,53.49
2019-05-15T11:38:28.955Z,52.65
2019-05-15T11:39:28.914Z,52.75
2019-05-15T11:40:28.510Z,51.89
2019-05-15T11:41:29.460Z,51.41
2019-05-15T11:42:28.954Z,50.93
2019-05-15T11:43:29.129Z,51.31
2019-05-15T11:44:28.443Z,50.84
2019-05-15T11:45:29.037Z,51.03
2019-05-15T11:46:29.128Z,50.55
2019-05-15T11:47:28.250Z,51.38
2019-05-15T11:48:29.922Z,51.67
2019-05-15T11:49:29.045Z,51.95
2019-05-15T11:50:29.287Z,52.81
2019-05-15T11:51:29.070Z,53.00
2019-05-15T11:52:29.396Z,53.29
2019-05-15T11:53:28.503Z,53.49
2019-05-15T11:54:28.434Z,53.00
2019-05-15T11:55:29.163Z,52.72
2019-05-15T11:56:29.619Z,52.91
2019-05-15T11:57:39.108Z,52.34
2019-05-15T11:58:28.325Z,52.91
2019-05-15T11:59:30.057Z,52.34
2019-05-15T12:00:30.316Z,53.00
2019-05-15T12:01:28.758Z,52.65
2019-05-15T12:02:29.322Z,52.55
2019-05-15T12:03:29.142Z,51.98
2019-05-15T12:04:33.750Z,51.89
2019-05-15T12:05:28.775Z,51.70
2019-05-15T12:06:29.289Z,51.60
2019-05-15T12:07:29.002Z,51.70
2019-05-15T12:08:29.360Z,51.98
2019-05-15T12:09:28.325Z,51.89
2019-05-15T12:10:28.908Z,50.93
2019-05-15T12:11:36.255Z,50.35
2019-05-15T12:12:31.798Z,50.84
2019-05-15T12:13:28.105Z,51.67
2019-05-15T12:14:29.643Z,51.29
2019-05-15T12:15:28.103Z,51.19
2019-05-15T12:16:28.993Z,51.67
2019-05-15T12:17:28.572Z,51.38
2019-05-15T12:18:28.619Z,51.67
2019-05-15T12:19:29.229Z,51.95
2019-05-15T12:20:28.581Z,52.53
2019-05-15T12:21:28.568Z,52.81
2019-05-15T12:22:28.978Z,52.81
2019-05-15T12:23:29.094Z,52.72
2019-05-15T12:24:35.038Z,53.49
2019-05-15T12:25:31.434Z,52.62
2019-05-15T12:26:29.178Z,52.91
2019-05-15T12:27:28.370Z,52.15
2019-05-15T12:28:29.573Z,51.76
2019-05-15T12:29:28.548Z,51.95
2019-05-15T12:30:29.612Z,51.89
2019-05-15T12:31:27.836Z,51.70
2019-05-15T12:32:35.794Z,51.86
2019-05-15T12:33:28.916Z,52.05
2019-05-15T12:34:28.913Z,51.60
2019-05-15T12:35:29.510Z,52.08
2019-05-15T12:37:28.495Z,51.31
2019-05-15T12:38:28.871Z,51.41
2019-05-15T12:39:24.792Z,52.36
2019-05-15T12:39:30.302Z,52.08
2019-05-15T12:59:44.763Z,49.43
2019-05-15T13:00:29.852Z,50.57
2019-05-15T13:01:29.530Z,50.16
2019-05-15T13:02:28.055Z,50.00
2019-05-15T13:03:28.899Z,50.74
2019-05-15T13:04:28.420Z,50.55
2019-05-15T13:05:28.735Z,51.43
2019-05-15T13:06:28.521Z,50.76
2019-05-15T13:07:28.563Z,51.62
2019-05-15T13:08:29.051Z,51.12
2019-05-15T13:09:27.831Z,50.67
2019-05-15T13:10:28.742Z,49.98
2019-05-15T13:11:28.471Z,50.09